| time (UTC) | temp C | wind direction | speed KPH | gust KPH | rain 1hr cm | rain 24hr cm | rain mn cm | humidity % | barometer mb |
| 20260508043020 | 7 | 71 | 0.0 | 8.0 | 0.00 | 3.28 | 0.00 | 95 | 1001.5 |
| 20260508041519 | 7 | 74 | 0.0 | 8.0 | 0.00 | 3.28 | 0.00 | 95 | 1001.7 |
| 20260508040019 | 7 | 74 | 6.4 | 9.7 | 0.00 | 3.28 | 0.00 | 94 | 1001.7 |
| 20260508034517 | 8 | 75 | 1.6 | 12.9 | 0.00 | 3.28 | 0.00 | 95 | 1001.7 |
| 20260508033017 | 9 | 74 | 0.0 | 3.2 | 0.00 | 3.28 | 0.00 | 96 | 1001.7 |
| 20260508031509 | 8 | 74 | 0.0 | 3.2 | 0.00 | 3.28 | 0.00 | 95 | 1001.8 |
| 20260508030006 | 8 | 74 | 0.0 | 8.0 | 0.00 | 3.28 | 0.00 | 96 | 1001.9 |
| 20260508024507 | 9 | 237 | 1.6 | 12.9 | 0.00 | 3.28 | 3.28 | 96 | 1001.7 |
| 20260508023013 | 8 | 147 | 0.0 | 4.8 | 0.00 | 3.28 | 3.28 | 96 | 1001.8 |
| 20260508021503 | 8 | 147 | 0.0 | 11.3 | 0.00 | 3.28 | 3.28 | 95 | 1001.6 |
| 20260508020003 | 9 | 201 | 0.0 | 9.7 | 0.00 | 3.28 | 3.28 | 96 | 1001.5 |
| 20260508014505 | 8 | 200 | 0.0 | 9.7 | 0.00 | 3.28 | 3.28 | 96 | 1001.6 |
| 20260508013001 | 8 | 199 | 6.4 | 12.9 | 0.00 | 3.28 | 3.28 | 96 | 1001.4 |
| 20260508011603 | 8 | 197 | 4.8 | 19.3 | 0.00 | 3.28 | 3.28 | 95 | 1001.1 |
| 20260508010057 | 10 | 200 | 9.7 | 16.1 | 0.00 | 3.28 | 3.28 | 96 | 1001.2 |
| 20260508004559 | 10 | 239 | 4.8 | 22.5 | 0.00 | 3.28 | 3.28 | 96 | 1001.1 |
| 20260508003104 | 9 | 199 | 11.3 | 17.7 | 0.00 | 3.28 | 3.28 | 96 | 1001.6 |
| 20260508001554 | 9 | 200 | 4.8 | 11.3 | 0.00 | 3.28 | 3.28 | 96 | 1001.7 |
| 20260508000053 | 9 | 202 | 6.4 | 19.3 | 0.00 | 3.28 | 3.28 | 96 | 1001.8 |
| 20260507234553 | 9 | 191 | 3.2 | 12.9 | 0.00 | 3.28 | 3.28 | 95 | 1001.7 |
| 20260507233054 | 10 | 203 | 3.2 | 12.9 | 0.00 | 3.28 | 3.28 | 95 | 1001.4 |
| 20260507231557 | 10 | 195 | 9.7 | 19.3 | 0.00 | 3.28 | 3.28 | 95 | 1001.8 |
| 20260507230050 | 10 | 202 | 11.3 | 19.3 | 0.00 | 3.28 | 3.28 | 95 | 1001.8 |
| 20260507224600 | 10 | 214 | 12.9 | 19.3 | 0.00 | 3.28 | 3.28 | 95 | 1001.8 |
| 20260507223051 | 10 | 216 | 14.5 | 22.5 | 0.00 | 3.28 | 3.28 | 94 | 1001.9 |
| 20260507221549 | 10 | 200 | 8.0 | 16.1 | 0.00 | 3.28 | 3.28 | 94 | 1002.0 |
| 20260507220048 | 11 | 205 | 11.3 | 17.7 | 0.00 | 3.28 | 3.28 | 94 | 1002.1 |
| 20260507214548 | 11 | 355 | 11.3 | 24.1 | 0.05 | 3.28 | 3.28 | 94 | 1002.3 |
| 20260507213050 | 11 | 355 | 9.7 | 19.3 | 0.10 | 3.28 | 3.28 | 95 | 1002.2 |
| 20260507211550 | 10 | 216 | 11.3 | 19.3 | 0.28 | 3.28 | 3.28 | 95 | 1002.1 |
| 20260507210111 | 10 | 189 | 8.0 | 12.9 | 0.51 | 3.28 | 3.28 | 95 | 1001.7 |
| 20260507204546 | 10 | 189 | 9.7 | 16.1 | 0.71 | 3.23 | 3.23 | 95 | 1002.6 |
| 20260507203043 | 10 | 202 | 9.7 | 16.1 | 1.09 | 3.15 | 3.15 | 95 | 1002.7 |
| 20260507201539 | 10 | 355 | 14.5 | 24.1 | 1.24 | 3.00 | 3.00 | 95 | 1003.3 |
| 20260507200051 | 10 | 202 | 8.0 | 24.1 | 1.27 | 2.77 | 2.77 | 95 | 1003.4 |
| 20260507194536 | 10 | 355 | 12.9 | 25.7 | 1.40 | 2.46 | 2.46 | 94 | 1004.1 |
| 20260507193101 | 10 | 355 | 20.9 | 38.6 | 1.27 | 2.06 | 2.06 | 94 | 1004.4 |
| 20260507191533 | 10 | 201 | 17.7 | 30.6 | 1.24 | 1.75 | 1.75 | 93 | 1004.7 |
| 20260507190038 | 11 | 355 | 11.3 | 20.9 | 1.07 | 1.45 | 1.45 | 93 | 1004.5 |
| 20260507184531 | 12 | 203 | 14.5 | 22.5 | 0.61 | 1.04 | 1.04 | 92 | 1004.6 |
| 20260507183037 | 12 | 218 | 16.1 | 32.2 | 0.36 | 0.79 | 0.79 | 93 | 1005.0 |
| 20260507181529 | 12 | 204 | 17.7 | 27.4 | 0.10 | 0.51 | 0.51 | 92 | 1004.4 |
| 20260507180031 | 12 | 206 | 14.5 | 24.1 | 0.03 | 0.43 | 0.43 | 90 | 1004.4 |
| 20260507174527 | 12 | 202 | 14.5 | 25.7 | 0.03 | 0.43 | 0.43 | 91 | 1004.2 |
| 20260507173024 | 12 | 355 | 12.9 | 30.6 | 0.03 | 0.43 | 0.43 | 91 | 1004.5 |
| 20260507171522 | 12 | 197 | 12.9 | 25.7 | 0.00 | 0.41 | 0.41 | 91 | 1004.9 |
| 20260507170022 | 12 | 355 | 14.5 | 32.2 | 0.00 | 0.41 | 0.41 | 89 | 1005.2 |
| 20260507164517 | 12 | 355 | 19.3 | 33.8 | 0.00 | 0.41 | 0.41 | 90 | 1005.6 |
| 20260507163016 | 12 | 197 | 14.5 | 29.0 | 0.00 | 0.41 | 0.41 | 88 | 1005.9 |
| 20260507161519 | 12 | 237 | 16.1 | 30.6 | 0.00 | 0.41 | 0.41 | 88 | 1006.4 |
| 20260507160017 | 12 | 216 | 14.5 | 33.8 | 0.00 | 0.41 | 0.41 | 88 | 1006.5 |
| 20260507154512 | 12 | 197 | 19.3 | 35.4 | 0.00 | 0.41 | 0.41 | 88 | 1006.9 |
| 20260507153015 | 13 | 197 | 17.7 | 32.2 | 0.00 | 0.41 | 0.41 | 88 | 1007.3 |
| 20260507151506 | 13 | 197 | 19.3 | 33.8 | 0.00 | 0.41 | 0.41 | 88 | 1007.4 |
| 20260507150003 | 12 | 203 | 20.9 | 38.6 | 0.00 | 0.41 | 0.41 | 89 | 1007.8 |
| 20260507144606 | 12 | 355 | 14.5 | 33.8 | 0.00 | 0.41 | 0.41 | 90 | 1008.0 |
| 20260507143101 | 12 | 206 | 16.1 | 32.2 | 0.00 | 0.41 | 0.41 | 90 | 1008.6 |
| 20260507141615 | 12 | 200 | 14.5 | 33.8 | 0.00 | 0.41 | 0.41 | 90 | 1008.8 |
| 20260507134603 | 12 | 206 | 17.7 | 38.6 | 0.00 | 0.41 | 0.41 | 89 | 1009.0 |
| 20260507133154 | 13 | 355 | 22.5 | 38.6 | 0.00 | 0.41 | 0.41 | 89 | 1009.2 |
| 20260507131552 | 13 | 216 | 24.1 | 41.8 | 0.00 | 0.41 | 0.41 | 89 | 1009.2 |
| 20260507130049 | 12 | 241 | 16.1 | 35.4 | 0.00 | 0.41 | 0.41 | 91 | 1009.1 |
| 20260507124548 | 12 | 204 | 19.3 | 38.6 | 0.13 | 0.41 | 0.41 | 92 | 1008.9 |
| 20260507123047 | 12 | 175 | 20.9 | 37.0 | 0.23 | 0.41 | 0.41 | 92 | 1009.5 |
| 20260507121541 | 12 | 203 | 22.5 | 35.4 | 0.28 | 0.41 | 0.41 | 94 | 1009.9 |
| 20260507120037 | 11 | 355 | 17.7 | 29.0 | 0.36 | 0.41 | 0.41 | 94 | 1010.5 |
| 20260507114536 | 11 | 200 | 19.3 | 37.0 | 0.23 | 0.28 | 0.28 | 94 | 1011.1 |
| 20260507113037 | 11 | 162 | 14.5 | 32.2 | 0.13 | 0.15 | 0.15 | 94 | 1011.1 |
| 20260507111538 | 11 | 188 | 17.7 | 35.4 | 0.08 | 0.13 | 0.13 | 94 | 1011.3 |
| 20260507110033 | 11 | 208 | 12.9 | 30.6 | 0.00 | 0.05 | 0.05 | 93 | 1011.2 |
| 20260507104530 | 11 | 198 | 16.1 | 27.4 | 0.00 | 0.05 | 0.05 | 93 | 1011.2 |
| 20260507103032 | 11 | 201 | 12.9 | 29.0 | 0.00 | 0.05 | 0.05 | 94 | 1011.5 |
| 20260507101528 | 11 | 208 | 11.3 | 22.5 | 0.00 | 0.05 | 0.05 | 94 | 1011.8 |
| 20260507100026 | 11 | 197 | 4.8 | 11.3 | 0.00 | 0.05 | 0.05 | 95 | 1011.6 |
| 20260507094526 | 11 | 198 | 4.8 | 17.7 | 0.00 | 0.05 | 0.05 | 95 | 1011.9 |
| 20260507093033 | 11 | 200 | 6.4 | 19.3 | 0.03 | 0.05 | 0.05 | 95 | 1012.1 |
| 20260507091522 | 11 | 217 | 9.7 | 19.3 | 0.03 | 0.05 | 0.05 | 96 | 1012.3 |
| 20260507090021 | 10 | 355 | 9.7 | 16.1 | 0.03 | 0.05 | 0.05 | 96 | 1012.2 |
| 20260507084521 | 10 | 203 | 9.7 | 22.5 | 0.03 | 0.05 | 0.05 | 95 | 1012.3 |
| 20260507083026 | 10 | 191 | 8.0 | 14.5 | 0.00 | 0.03 | 0.03 | 93 | 1012.2 |
| 20260507081529 | 11 | 198 | 4.8 | 11.3 | 0.03 | 0.03 | 0.03 | 95 | 1012.3 |
| 20260507080020 | 11 | 355 | 8.0 | 19.3 | 0.03 | 0.03 | 0.03 | 95 | 1012.7 |
| 20260507074514 | 11 | 178 | 14.5 | 22.5 | 0.03 | 0.03 | 0.03 | 95 | 1012.9 |
| 20260507073011 | 10 | 216 | 8.0 | 16.1 | 0.03 | 0.03 | 0.03 | 95 | 1013.3 |
| 20260507071509 | 10 | 197 | 4.8 | 16.1 | 0.00 | 0.00 | 0.00 | 95 | 1013.2 |
| 20260507070011 | 10 | 200 | 12.9 | 17.7 | 0.00 | 0.00 | 0.00 | 95 | 1013.5 |
| 20260507064506 | 9 | 195 | 8.0 | 14.5 | 0.00 | 0.00 | 0.00 | 93 | 1013.5 |
| 20260507061538 | 10 | 193 | 8.0 | 14.5 | 0.00 | 0.00 | 0.00 | 94 | 1014.0 |
| 20260507060036 | 10 | 202 | 4.8 | 12.9 | 0.00 | 0.00 | 0.00 | 94 | 1014.3 |
| 20260507054536 | 10 | 355 | 9.7 | 19.3 | 0.00 | 0.00 | 0.00 | 94 | 1014.4 |
| 20260507053032 | 9 | 216 | 12.9 | 19.3 | 0.00 | 0.00 | 0.00 | 93 | 1014.6 |
| 20260507051529 | 9 | 355 | 11.3 | 22.5 | 0.00 | 0.00 | 0.00 | 93 | 1014.7 |
| 20260507050035 | 9 | 208 | 4.8 | 12.9 | 0.00 | 0.00 | 0.00 | 93 | 1015.1 |
| 20260507044524 | 9 | 355 | 9.7 | 12.9 | 0.00 | 0.00 | 0.00 | 92 | 1015.4 |